Texas Instruments PE Ratio 2006-2018 | TXN

Current and historical p/e ratio for Texas Instruments (TXN) from 2006 to 2018. The price to earnings ratio is calculated by taking the latest closing price and dividing it by the most recent earnings per share (EPS) number. The PE ratio is a simple way to assess whether a stock is over or under valued and is the most widely used valuation measure. Texas Instruments PE ratio as of April 19, 2019 is 21.27.
Texas Instruments PE Ratio Historical Data
Date Stock Price TTM Net EPS PE Ratio
2019-04-18 115.51 20.63
2018-12-31 93.79 $5.60 16.75
2018-09-30 105.61 $4.67 22.62
2018-06-30 107.92 $4.35 24.81
2018-03-31 101.10 $3.98 25.40
2017-12-31 101.06 $3.60 28.07
2017-09-30 86.19 $4.28 20.14
2017-06-30 73.51 $3.96 18.56
2017-03-31 76.51 $3.69 20.73
2016-12-31 68.86 $3.37 20.43
2016-09-30 65.74 $3.15 20.87
2016-06-30 58.37 $2.97 19.65
2016-03-31 53.15 $2.86 18.59
2015-12-31 50.36 $2.82 17.86
2015-09-30 45.21 $2.78 16.26
2015-06-30 46.71 $2.78 16.80
2015-03-31 51.54 $2.75 18.74
2014-12-31 47.88 $2.58 18.56
2014-09-30 42.41 $2.28 18.60
2014-06-30 42.23 $2.08 20.30
2014-03-31 41.40 $2.04 20.29
2013-12-31 38.28 $1.92 19.94
2013-09-30 34.87 $1.69 20.63
2013-06-30 29.94 $1.80 16.64
2013-03-31 30.25 $1.61 18.79
2012-12-31 26.17 $1.51 17.33
2012-09-30 23.17 $1.53 15.14
2012-06-30 23.97 $1.37 17.50
2012-03-31 27.94 $1.54 18.14
2011-12-31 24.07 $1.87 12.87
2011-09-30 21.92 $2.40 9.13
2011-06-30 26.89 $2.60 10.34
2011-03-31 28.20 $2.66 10.60
2010-12-31 26.42 $2.63 10.05
2010-09-30 21.97 $2.37 9.27
2010-06-30 18.75 $2.08 9.02
2010-03-31 19.62 $1.66 11.82
2009-12-31 20.79 $1.15 18.08
2009-09-30 18.80 $0.71 26.48
2009-06-30 16.83 $0.72 23.37
2009-03-31 12.96 $0.96 13.50
2008-12-31 12.10 $1.44 8.40
2008-09-30 16.66 $1.90 8.77
2008-06-30 21.73 $2.01 10.81
2008-03-31 21.74 $1.99 10.92
2007-12-31 25.60 $1.85 13.84
2007-09-30 27.96 $1.76 15.89
2007-06-30 28.69 $1.68 17.08
2007-03-31 22.89 $2.76 8.30
2006-12-31 21.88 $2.77 7.90
Sector Industry Market Cap Revenue
Computer and Technology Semiconductor - General $108.420B $15.784B
Texas Instruments Incorporated (TI) is a global semiconductor design and manufacturing company that develops analog ICs and embedded processors. By employing the world's brightest minds, TI creates innovations that shape the future of technology. TI is helping approximately 100,000 customers transform the future, today. They produce TI DLP technology and education technology products. Analog products connect the physical and the digital worlds -turning signals like sound, pressure, temperature, humidity and light into digital 1s and 0s to be used by electronic devices - and translating that data back to information we interact with in the real world. Embedded processors are the processing brains of electronics that gather inputs from analog chips and perform computational processing to operate a system. TI DLP? technology powers a range of display and advanced light control applications spanning industrial, enterprise, automotive and consumer market segments, including projectors and cinema technology.
Stock Name Country Market Cap PE Ratio
Intel (INTC) United States $273.635B 12.74
NVIDIA (NVDA) United States $113.363B 31.58
STMicroelectronics (STM) Switzerland $16.659B 12.90
Amtech Systems (ASYS) United States $0.094B 331.50